Time;durP1;ratioP1;P1;durP2;ratioP2;P2;SDS_P1;SDS_P2;PMS_P1;PMS_P2;Temp;Humidity;BMP_temperature;BMP_pressure;BME280_temperature;BME280_humidity;BME280_pressure;Samples;Min_cycle;Max_cycle;Signal;HPM_P1;HPM_P2
2022/03/10 00:02:09;;;;;;;30.73;20.57;;;3.50;70.60;;;;;;5013421;28;20171;-68
2022/03/10 00:04:35;;;;;;;31.93;22.10;;;3.50;70.90;;;;;;5014004;28;20186;-69
2022/03/10 00:07:04;;;;;;;27.93;20.30;;;3.50;70.80;;;;;;5014054;28;20434;-68
2022/03/10 00:09:30;;;;;;;34.10;21.80;;;3.50;73.50;;;;;;5013969;28;20438;-68
2022/03/10 00:11:56;;;;;;;30.57;19.80;;;3.50;73.80;;;;;;5013633;28;21065;-68
2022/03/10 00:14:22;;;;;;;37.37;23.30;;;3.40;73.50;;;;;;5013714;28;20516;-68
2022/03/10 00:16:49;;;;;;;35.47;21.10;;;3.30;73.80;;;;;;5014102;28;20255;-68
2022/03/10 00:19:16;;;;;;;26.93;19.23;;;3.30;73.80;;;;;;5013209;28;20696;-68
2022/03/10 00:21:41;;;;;;;37.50;23.77;;;3.20;74.20;;;;;;5013728;28;20959;-68
2022/03/10 00:24:07;;;;;;;39.80;21.33;;;3.20;75.00;;;;;;5020792;28;20461;-68
2022/03/10 00:26:32;;;;;;;34.97;20.87;;;3.20;75.30;;;;;;5013637;28;20588;-68
2022/03/10 00:28:58;;;;;;;25.80;18.17;;;3.20;75.80;;;;;;5026252;28;20197;-68
2022/03/10 00:31:23;;;;;;;28.43;20.03;;;3.30;75.90;;;;;;5018170;28;20551;-68
2022/03/10 00:33:49;;;;;;;31.40;18.83;;;3.30;76.20;;;;;;5024105;28;20194;-68
2022/03/10 00:36:15;;;;;;;26.97;18.10;;;3.30;77.10;;;;;;5013461;28;20668;-69
2022/03/10 00:38:42;;;;;;;26.67;16.87;;;3.30;76.90;;;;;;5023264;28;20174;-68
2022/03/10 00:41:09;;;;;;;25.33;16.73;;;3.30;77.60;;;;;;5025045;28;20436;-68
2022/03/10 00:43:35;;;;;;;24.57;16.90;;;3.30;77.20;;;;;;5018954;28;20849;-68
2022/03/10 00:46:00;;;;;;;24.77;16.27;;;3.20;75.60;;;;;;5017677;28;20441;-68
2022/03/10 00:48:26;;;;;;;28.27;15.07;;;3.20;75.70;;;;;;5015622;28;20186;-69
2022/03/10 00:50:51;;;;;;;26.83;15.97;;;3.20;75.40;;;;;;5025203;28;20261;-68
2022/03/10 00:53:17;;;;;;;24.70;15.83;;;3.20;75.30;;;;;;5021099;28;20202;-69
2022/03/10 00:55:42;;;;;;;23.77;14.83;;;3.20;75.60;;;;;;5025294;28;20187;-68
2022/03/10 00:58:08;;;;;;;21.67;16.47;;;3.10;75.40;;;;;;5029149;28;20190;-68
2022/03/10 01:00:34;;;;;;;27.60;16.27;;;3.10;75.50;;;;;;5016701;28;20697;-68
2022/03/10 01:02:59;;;;;;;29.63;16.47;;;3.20;75.80;;;;;;5016709;28;20205;-68
2022/03/10 01:05:25;;;;;;;24.57;15.97;;;3.20;75.30;;;;;;5017905;28;20396;-68
2022/03/10 01:07:51;;;;;;;24.70;15.37;;;3.30;75.00;;;;;;5016490;28;20179;-67
2022/03/10 01:10:17;;;;;;;22.53;15.83;;;3.30;77.40;;;;;;5012307;28;20253;-68
2022/03/10 01:12:45;;;;;;;29.53;16.97;;;3.30;77.20;;;;;;5012496;28;20206;-68
2022/03/10 01:15:23;;;;;;;28.60;17.23;;;3.20;76.40;;;;;;5015815;28;20930;-68
2022/03/10 01:17:49;;;;;;;23.03;16.53;;;3.20;77.40;;;;;;5012193;28;20437;-69
2022/03/10 01:20:17;;;;;;;26.50;17.70;;;3.20;79.00;;;;;;5012219;28;20453;-68
2022/03/10 01:22:42;;;;;;;24.80;16.17;;;3.20;78.20;;;;;;5012262;28;20898;-69
2022/03/10 01:25:09;;;;;;;27.23;17.93;;;3.10;77.90;;;;;;5012700;28;20437;-68
2022/03/10 01:27:35;;;;;;;25.10;15.63;;;3.10;78.60;;;;;;5012849;28;20545;-68
2022/03/10 01:30:01;;;;;;;28.27;17.60;;;3.10;80.40;;;;;;5012499;28;20438;-68
2022/03/10 01:32:27;;;;;;;24.23;16.97;;;3.10;82.70;;;;;;5011779;28;20445;-68
2022/03/10 01:34:53;;;;;;;26.73;17.00;;;3.10;82.50;;;;;;5012265;28;20482;-68
2022/03/10 01:37:19;;;;;;;23.60;16.87;;;3.00;82.00;;;;;;5012622;28;20433;-68
2022/03/10 01:39:45;;;;;;;26.37;17.33;;;3.00;82.20;;;;;;5012429;28;20264;-68
2022/03/10 01:42:10;;;;;;;31.33;18.00;;;3.00;82.30;;;;;;5011383;28;20431;-68
2022/03/10 01:44:36;;;;;;;31.63;18.20;;;2.90;82.60;;;;;;5012141;28;20175;-68
2022/03/10 01:47:02;;;;;;;36.20;18.30;;;2.90;83.10;;;;;;5011550;28;20438;-69
2022/03/10 01:49:28;;;;;;;29.93;17.60;;;2.90;84.00;;;;;;5011842;28;20189;-68
2022/03/10 01:51:53;;;;;;;27.77;17.70;;;3.00;83.70;;;;;;5012215;28;20923;-68
2022/03/10 01:54:20;;;;;;;31.73;21.63;;;2.90;84.30;;;;;;5012121;28;20203;-68
2022/03/10 01:56:47;;;;;;;30.07;19.07;;;2.90;85.00;;;;;;5011937;28;20265;-69
2022/03/10 01:59:13;;;;;;;31.33;19.60;;;2.90;86.10;;;;;;5012024;28;20453;-69
2022/03/10 02:01:39;;;;;;;31.73;18.63;;;2.80;87.60;;;;;;5009395;28;20438;-69
2022/03/10 02:04:04;;;;;;;30.80;19.70;;;2.70;88.60;;;;;;5011759;28;21032;-68
2022/03/10 02:06:30;;;;;;;27.63;18.27;;;2.70;89.10;;;;;;5011489;28;20552;-68
2022/03/10 02:11:41;;;;;;;29.30;19.37;;;2.70;88.50;;;;;;5011737;28;20185;-68
2022/03/10 02:19:35;;;;;;;37.80;18.10;;;2.70;90.30;;;;;;5011748;28;20750;-68
2022/03/10 02:22:09;;;;;;;33.60;17.67;;;2.60;91.20;;;;;;5011152;28;20524;-68
2022/03/10 02:24:39;;;;;;;25.50;16.27;;;2.40;91.60;;;;;;5011471;28;20182;-68
2022/03/10 02:27:19;;;;;;;24.43;16.20;;;2.30;91.20;;;;;;5011756;28;20434;-69
2022/03/10 02:29:46;;;;;;;26.20;16.83;;;2.30;91.10;;;;;;5011331;28;20430;-68
2022/03/10 02:32:13;;;;;;;22.10;15.17;;;2.30;91.00;;;;;;5011643;28;20430;-69
2022/03/10 02:34:39;;;;;;;26.60;16.50;;;2.30;91.00;;;;;;5011278;28;20440;-70
2022/03/10 02:37:05;;;;;;;23.50;15.13;;;2.30;92.50;;;;;;5011684;28;20429;-70
2022/03/10 02:39:31;;;;;;;29.83;14.43;;;2.30;92.30;;;;;;5011764;28;20481;-69
2022/03/10 02:41:56;;;;;;;19.03;13.30;;;2.20;92.10;;;;;;5010807;28;20175;-69
2022/03/10 02:44:22;;;;;;;22.70;13.90;;;2.20;92.80;;;;;;5011570;28;20179;-69
2022/03/10 02:46:48;;;;;;;19.43;13.43;;;2.20;92.70;;;;;;5012033;28;20553;-69
2022/03/10 02:49:13;;;;;;;20.43;14.10;;;2.20;93.10;;;;;;5011432;28;20222;-68
2022/03/10 02:51:39;;;;;;;19.10;14.27;;;2.30;94.10;;;;;;5011168;28;20175;-68
2022/03/10 02:54:04;;;;;;;21.13;13.10;;;2.30;93.90;;;;;;5011475;28;20606;-69
2022/03/10 02:56:30;;;;;;;20.93;13.47;;;2.30;94.10;;;;;;5011289;28;20195;-68
2022/03/10 02:58:55;;;;;;;16.33;12.70;;;2.20;94.70;;;;;;5011276;28;20548;-69
2022/03/10 03:01:21;;;;;;;17.17;12.83;;;2.20;94.80;;;;;;5011750;28;20178;-69
2022/03/10 03:03:46;;;;;;;20.13;13.07;;;2.10;95.20;;;;;;5014582;28;20249;-68
2022/03/10 03:06:12;;;;;;;21.83;14.80;;;2.10;95.30;;;;;;5014995;28;20178;-69
2022/03/10 03:08:37;;;;;;;21.47;13.70;;;2.10;95.40;;;;;;5014835;28;20548;-69
2022/03/10 03:11:03;;;;;;;20.37;14.43;;;2.10;96.10;;;;;;5014989;28;20254;-69
2022/03/10 03:13:28;;;;;;;19.30;13.30;;;2.10;96.10;;;;;;5014696;28;20195;-69
2022/03/10 03:15:54;;;;;;;21.20;13.33;;;2.10;96.10;;;;;;5014785;28;20190;-69
2022/03/10 03:18:19;;;;;;;19.77;15.17;;;2.10;95.90;;;;;;5014697;28;20645;-69
2022/03/10 03:20:45;;;;;;;20.50;13.07;;;2.10;97.40;;;;;;5007981;28;20257;-69
2022/03/10 03:23:11;;;;;;;21.13;14.00;;;2.10;97.70;;;;;;5014752;28;20207;-69
2022/03/10 03:25:36;;;;;;;17.13;12.83;;;2.00;98.30;;;;;;5014650;28;20915;-69
2022/03/10 03:28:04;;;;;;;21.27;14.90;;;2.00;98.60;;;;;;5014827;28;20182;-68
2022/03/10 03:30:29;;;;;;;18.47;13.70;;;2.00;98.70;;;;;;5014505;28;20205;-70
2022/03/10 03:32:55;;;;;;;21.63;14.07;;;1.80;99.30;;;;;;5014373;28;20502;-69
2022/03/10 03:35:20;;;;;;;23.13;12.93;;;1.70;99.90;;;;;;5014635;28;20190;-69
2022/03/10 03:37:46;;;;;;;22.83;13.60;;;1.70;99.40;;;;;;5014225;28;20699;-69
2022/03/10 03:40:12;;;;;;;18.73;13.60;;;1.70;98.70;;;;;;5014691;28;20346;-69
2022/03/10 03:42:38;;;;;;;19.43;13.23;;;1.70;98.80;;;;;;5014010;28;20206;-69
2022/03/10 03:45:05;;;;;;;18.43;12.70;;;1.70;99.30;;;;;;5013280;28;20500;-68
2022/03/10 03:47:30;;;;;;;25.10;13.73;;;1.70;99.30;;;;;;5014512;28;20183;-68
2022/03/10 03:49:56;;;;;;;24.10;14.60;;;1.70;99.10;;;;;;5014403;28;21234;-69
2022/03/10 03:52:21;;;;;;;22.30;14.10;;;1.70;98.80;;;;;;5014420;28;20190;-69
2022/03/10 03:54:47;;;;;;;21.03;13.77;;;1.70;99.20;;;;;;5013822;28;20187;-68
2022/03/10 03:57:12;;;;;;;18.20;12.90;;;1.70;99.10;;;;;;5014720;28;20578;-68
2022/03/10 03:59:38;;;;;;;19.57;13.70;;;1.70;99.90;;;;;;5014038;28;20194;-68
2022/03/10 04:02:04;;;;;;;20.60;14.03;;;1.70;99.90;;;;;;5013869;28;20176;-68
2022/03/10 04:04:30;;;;;;;23.20;13.97;;;1.60;99.60;;;;;;5013855;28;20222;-68
2022/03/10 04:06:55;;;;;;;24.70;14.60;;;1.60;99.00;;;;;;5014157;28;20533;-68
2022/03/10 04:09:21;;;;;;;20.53;14.93;;;1.60;99.20;;;;;;5013954;28;20433;-70
2022/03/10 04:11:46;;;;;;;20.90;14.13;;;1.60;99.90;;;;;;5013832;28;20594;-68
2022/03/10 04:14:12;;;;;;;27.90;15.87;;;1.60;99.90;;;;;;5013696;28;20751;-69
2022/03/10 04:16:38;;;;;;;25.50;15.07;;;1.60;99.90;;;;;;5013505;28;20171;-69
2022/03/10 04:19:05;;;;;;;22.87;15.30;;;1.60;99.90;;;;;;5013758;28;20967;-68
2022/03/10 04:21:31;;;;;;;21.93;15.30;;;1.50;99.90;;;;;;5013844;28;20422;-69
2022/03/10 04:23:56;;;;;;;20.20;14.10;;;1.60;99.90;;;;;;5013481;28;20472;-69
2022/03/10 04:26:22;;;;;;;21.87;14.07;;;1.50;99.90;;;;;;5012225;28;20785;-68
2022/03/10 04:28:47;;;;;;;27.97;16.27;;;1.50;99.90;;;;;;5013488;28;20179;-68
2022/03/10 04:31:13;;;;;;;23.83;15.10;;;1.50;99.90;;;;;;5013801;28;20187;-68
2022/03/10 04:33:39;;;;;;;23.33;15.80;;;1.40;99.90;;;;;;5013197;28;20195;-68
2022/03/10 04:36:04;;;;;;;24.70;15.90;;;1.40;99.90;;;;;;5013633;28;20226;-67
2022/03/10 04:38:30;;;;;;;20.60;16.00;;;1.40;99.90;;;;;;5011698;28;20163;-69
2022/03/10 04:40:55;;;;;;;23.10;15.43;;;1.50;99.90;;;;;;5013393;28;20640;-66
2022/03/10 04:43:21;;;;;;;24.23;15.10;;;1.50;99.90;;;;;;5012799;28;20199;-70
2022/03/10 04:45:46;;;;;;;22.27;15.10;;;1.40;99.90;;;;;;5013230;28;20187;-67
2022/03/10 04:48:12;;;;;;;26.53;17.90;;;1.40;99.90;;;;;;5013341;28;20187;-69
2022/03/10 04:50:38;;;;;;;25.10;15.63;;;1.30;99.90;;;;;;5013035;28;20181;-69
2022/03/10 04:53:04;;;;;;;25.17;16.43;;;1.30;99.90;;;;;;5012814;28;20205;-70
2022/03/10 04:55:30;;;;;;;26.77;16.50;;;1.30;99.90;;;;;;5012588;28;20283;-67
2022/03/10 04:57:56;;;;;;;22.03;16.27;;;1.30;99.90;;;;;;5011990;28;20564;-69
2022/03/10 05:00:22;;;;;;;26.20;16.83;;;1.30;99.90;;;;;;5013094;28;20971;-70
2022/03/10 05:02:47;;;;;;;26.67;18.67;;;1.30;99.90;;;;;;5014039;28;20188;-69
2022/03/10 05:05:14;;;;;;;28.17;17.63;;;1.40;99.90;;;;;;5018415;28;20178;-68
2022/03/10 05:07:41;;;;;;;24.33;16.60;;;1.30;99.90;;;;;;5012706;28;20245;-69
2022/03/10 05:10:08;;;;;;;23.40;16.30;;;1.30;99.90;;;;;;5012880;28;20438;-70
2022/03/10 05:12:34;;;;;;;22.73;16.80;;;1.30;99.90;;;;;;5012640;28;20454;-69
2022/03/10 05:15:01;;;;;;;28.23;18.17;;;1.30;99.90;;;;;;5012904;28;20949;-70
2022/03/10 05:17:27;;;;;;;30.80;18.00;;;1.30;99.90;;;;;;5013088;28;20696;-69
2022/03/10 05:19:53;;;;;;;24.97;16.77;;;1.30;99.90;;;;;;5013023;28;20497;-69
2022/03/10 05:22:19;;;;;;;29.00;18.73;;;1.30;99.90;;;;;;5012212;28;20481;-69
2022/03/10 05:24:44;;;;;;;23.20;16.27;;;1.30;99.90;;;;;;5011948;28;20206;-69
2022/03/10 05:27:10;;;;;;;28.87;19.60;;;1.30;99.90;;;;;;5011778;28;20487;-70
2022/03/10 05:29:40;;;;;;;30.57;18.40;;;1.20;99.90;;;;;;5012390;28;20190;-69
2022/03/10 05:32:11;;;;;;;29.27;19.50;;;1.20;99.90;;;;;;5011931;28;20191;-68
2022/03/10 05:34:37;;;;;;;28.00;17.63;;;1.10;99.90;;;;;;5012459;28;20448;-67
2022/03/10 05:37:02;;;;;;;22.63;16.47;;;1.10;99.90;;;;;;5012445;28;20426;-67
2022/03/10 05:39:28;;;;;;;26.73;18.20;;;1.10;99.90;;;;;;5012476;28;20481;-67
2022/03/10 05:41:54;;;;;;;28.33;18.93;;;1.10;99.90;;;;;;5012399;28;20179;-68
2022/03/10 05:44:19;;;;;;;29.90;18.73;;;1.10;99.90;;;;;;5012426;28;20660;-68
2022/03/10 05:46:45;;;;;;;33.50;17.63;;;1.00;99.90;;;;;;5012120;28;20557;-67
2022/03/10 05:49:10;;;;;;;27.07;18.73;;;1.00;99.90;;;;;;5012241;28;20182;-67
2022/03/10 05:51:36;;;;;;;26.77;17.23;;;1.00;99.90;;;;;;5012297;28;20201;-68
2022/03/10 05:54:02;;;;;;;34.30;16.07;;;1.00;99.90;;;;;;5010917;28;20716;-68
2022/03/10 05:56:28;;;;;;;33.63;17.00;;;0.90;99.90;;;;;;5012001;28;20206;-67
2022/03/10 05:58:54;;;;;;;26.37;17.30;;;1.00;99.90;;;;;;5011591;28;20434;-67
2022/03/10 06:01:19;;;;;;;26.60;15.03;;;1.00;99.90;;;;;;5011735;28;20222;-67
2022/03/10 06:03:45;;;;;;;26.33;16.23;;;1.00;99.90;;;;;;5011122;28;20221;-67
2022/03/10 06:06:13;;;;;;;28.53;16.07;;;1.10;99.90;;;;;;5011694;28;20183;-67
2022/03/10 06:08:39;;;;;;;27.97;17.00;;;1.10;99.90;;;;;;5011816;28;20188;-67
2022/03/10 06:11:07;;;;;;;28.00;18.40;;;1.10;99.90;;;;;;5011553;28;20441;-67
2022/03/10 06:13:33;;;;;;;26.43;14.10;;;1.10;99.90;;;;;;5011695;28;20675;-68
2022/03/10 06:15:58;;;;;;;36.47;16.53;;;1.20;99.90;;;;;;5011701;28;20442;-68
2022/03/10 06:18:24;;;;;;;25.50;16.43;;;1.20;99.90;;;;;;5010863;28;20441;-67
2022/03/10 06:20:49;;;;;;;26.43;15.13;;;1.30;99.90;;;;;;5011346;28;20205;-69
2022/03/10 06:23:15;;;;;;;20.20;13.83;;;1.30;99.90;;;;;;5011036;28;20206;-69
2022/03/10 06:25:40;;;;;;;24.70;15.50;;;1.40;99.90;;;;;;5011362;28;20568;-67
2022/03/10 06:28:06;;;;;;;24.07;14.63;;;1.60;99.90;;;;;;5011590;28;20175;-67
2022/03/10 06:30:32;;;;;;;25.93;15.67;;;1.80;99.90;;;;;;5010425;28;20183;-66
2022/03/10 06:32:58;;;;;;;25.17;16.40;;;2.00;99.90;;;;;;5011315;28;20568;-67
2022/03/10 06:35:23;;;;;;;24.73;17.77;;;2.20;99.90;;;;;;5012885;28;20224;-67
2022/03/10 06:37:49;;;;;;;23.67;16.07;;;2.40;99.90;;;;;;5015503;28;20712;-67
2022/03/10 06:40:15;;;;;;;25.90;16.10;;;2.60;99.90;;;;;;5014985;28;20487;-68
2022/03/10 06:42:40;;;;;;;23.23;15.77;;;2.70;99.90;;;;;;5014537;28;20217;-67
2022/03/10 06:45:06;;;;;;;24.67;17.87;;;2.90;99.90;;;;;;5015419;28;20433;-69
2022/03/10 06:47:32;;;;;;;32.23;17.50;;;3.10;99.90;;;;;;5011201;28;20621;-68
2022/03/10 06:49:57;;;;;;;23.93;17.40;;;3.40;99.90;;;;;;5014945;28;20672;-70
2022/03/10 06:52:23;;;;;;;27.10;16.10;;;3.50;99.70;;;;;;5010416;28;20664;-70
2022/03/10 06:54:48;;;;;;;24.60;17.47;;;3.70;99.60;;;;;;5015314;28;20190;-67
2022/03/10 06:57:14;;;;;;;27.23;19.17;;;3.90;99.50;;;;;;5014225;28;20190;-69
2022/03/10 06:59:40;;;;;;;31.20;19.60;;;4.00;98.30;;;;;;5015253;28;20687;-70
2022/03/10 07:02:06;;;;;;;26.50;18.87;;;4.30;97.00;;;;;;5014917;28;20437;-69
2022/03/10 07:04:32;;;;;;;28.43;19.30;;;4.60;96.30;;;;;;5015360;28;20988;-69
2022/03/10 07:06:58;;;;;;;26.80;17.67;;;4.80;96.00;;;;;;5015001;28;20628;-68
2022/03/10 07:09:24;;;;;;;26.40;19.30;;;5.00;95.00;;;;;;5015214;28;20437;-67
2022/03/10 07:11:49;;;;;;;32.50;19.60;;;5.20;93.70;;;;;;5014917;28;20191;-68
2022/03/10 07:14:15;;;;;;;27.30;18.17;;;5.40;93.20;;;;;;5014661;28;20282;-67
2022/03/10 07:16:41;;;;;;;38.37;17.73;;;5.60;93.50;;;;;;5014958;28;20186;-68
2022/03/10 07:19:09;;;;;;;27.70;17.70;;;5.60;92.90;;;;;;5014075;28;20582;-68
2022/03/10 07:21:37;;;;;;;32.63;17.73;;;5.80;91.80;;;;;;5014627;28;21010;-68
2022/03/10 07:24:04;;;;;;;34.53;21.30;;;6.00;91.80;;;;;;5014146;28;20488;-67
2022/03/10 07:26:29;;;;;;;27.20;19.20;;;6.20;91.00;;;;;;5015217;28;20433;-67
2022/03/10 07:28:59;;;;;;;28.37;21.60;;;6.50;90.10;;;;;;5014462;28;20433;-67
2022/03/10 07:31:25;;;;;;;31.57;21.53;;;6.80;90.50;;;;;;5014642;28;20658;-67
2022/03/10 07:33:51;;;;;;;26.47;20.03;;;7.00;90.20;;;;;;5012317;28;20461;-67
2022/03/10 07:36:16;;;;;;;31.80;20.40;;;7.20;89.10;;;;;;5014284;28;20826;-67
2022/03/10 07:38:42;;;;;;;26.50;19.00;;;7.30;87.80;;;;;;5013346;28;20174;-68
2022/03/10 07:41:07;;;;;;;28.30;19.37;;;7.40;87.00;;;;;;5013518;28;20680;-68
2022/03/10 07:43:33;;;;;;;34.53;22.03;;;7.50;86.60;;;;;;5013749;28;20257;-66
2022/03/10 07:45:58;;;;;;;26.27;20.43;;;7.60;87.30;;;;;;5013854;28;20175;-68
2022/03/10 07:48:24;;;;;;;29.20;20.53;;;7.80;86.10;;;;;;5013233;28;20190;-66
2022/03/10 07:50:49;;;;;;;25.03;19.50;;;7.90;85.10;;;;;;5013780;28;20224;-67
2022/03/10 07:53:15;;;;;;;27.37;21.70;;;8.10;85.20;;;;;;5013505;28;20207;-68
2022/03/10 07:55:41;;;;;;;27.47;19.90;;;8.30;83.50;;;;;;5013720;28;20191;-67
2022/03/10 07:58:07;;;;;;;25.73;21.17;;;8.60;82.30;;;;;;4988529;28;20191;-68
2022/03/10 08:00:33;;;;;;;31.27;19.37;;;8.80;79.80;;;;;;5013365;28;20544;-67
2022/03/10 08:02:58;;;;;;;36.30;24.60;;;9.00;78.70;;;;;;5012126;28;20591;-67
2022/03/10 08:05:24;;;;;;;36.80;20.37;;;9.40;77.50;;;;;;5009468;28;20176;-67
2022/03/10 08:07:50;;;;;;;22.80;15.30;;;10.00;91.40;;;;;;5014591;28;20186;-67
2022/03/10 08:10:16;;;;;;;29.00;17.90;;;10.80;77.10;;;;;;5012817;28;20175;-67
2022/03/10 08:12:41;;;;;;;18.90;13.93;;;11.40;77.70;;;;;;5013277;28;20456;-67
2022/03/10 08:15:07;;;;;;;21.83;15.43;;;11.60;64.90;;;;;;5009829;28;20187;-68
2022/03/10 08:17:33;;;;;;;22.27;15.77;;;11.40;67.50;;;;;;5013184;28;20256;-67
2022/03/10 08:19:58;;;;;;;20.57;15.07;;;11.70;63.20;;;;;;5013382;28;20466;-67
2022/03/10 08:22:26;;;;;;;18.40;13.73;;;12.10;61.80;;;;;;5012123;28;20656;-67
2022/03/10 08:24:52;;;;;;;20.60;15.70;;;12.60;65.20;;;;;;5009645;28;20179;-68
2022/03/10 08:27:17;;;;;;;25.63;14.07;;;12.60;58.20;;;;;;5013091;28;20509;-69
2022/03/10 08:29:44;;;;;;;15.67;13.40;;;13.10;60.70;;;;;;5012557;28;20179;-67
2022/03/10 08:32:10;;;;;;;37.20;14.77;;;13.50;59.10;;;;;;5013242;28;20183;-67
2022/03/10 08:34:36;;;;;;;19.67;14.60;;;13.90;59.20;;;;;;5011294;28;20452;-69
2022/03/10 08:37:02;;;;;;;17.40;13.57;;;14.20;55.60;;;;;;5010122;28;20444;-67
2022/03/10 08:39:28;;;;;;;16.73;13.00;;;14.40;55.70;;;;;;5013203;28;20454;-68
2022/03/10 08:41:53;;;;;;;14.37;12.80;;;14.50;53.50;;;;;;5011292;28;20426;-67
2022/03/10 08:44:20;;;;;;;18.37;14.67;;;14.50;53.80;;;;;;5012719;28;20567;-68
2022/03/10 08:46:46;;;;;;;14.80;13.30;;;14.70;52.20;;;;;;5008679;28;20266;-68
2022/03/10 08:49:13;;;;;;;14.77;12.97;;;14.70;52.20;;;;;;5013109;28;20426;-67
2022/03/10 08:51:39;;;;;;;16.10;13.70;;;14.70;51.50;;;;;;5011835;28;20434;-68
2022/03/10 08:54:04;;;;;;;19.33;13.83;;;14.90;51.70;;;;;;5012311;28;21040;-67
2022/03/10 08:56:30;;;;;;;15.53;13.10;;;15.40;51.10;;;;;;5010908;28;20656;-68
2022/03/10 08:58:56;;;;;;;14.60;13.10;;;15.60;50.60;;;;;;5011412;28;20649;-68
2022/03/10 09:01:22;;;;;;;14.93;13.33;;;16.10;49.30;;;;;;5012670;28;20219;-68
2022/03/10 09:03:47;;;;;;;18.87;13.60;;;16.50;48.00;;;;;;5012078;28;20485;-68
2022/03/10 09:06:14;;;;;;;14.67;13.07;;;16.60;48.10;;;;;;5008819;28;20246;-68
2022/03/10 09:08:39;;;;;;;14.47;12.60;;;16.80;47.10;;;;;;5012500;28;20199;-69
2022/03/10 09:11:07;;;;;;;13.20;11.90;;;17.00;47.50;;;;;;5011986;28;20520;-68
2022/03/10 09:13:32;;;;;;;14.03;12.57;;;16.10;46.40;;;;;;5011506;28;20205;-68
2022/03/10 09:15:58;;;;;;;15.60;13.83;;;15.70;46.80;;;;;;5008606;28;20437;-68
2022/03/10 09:18:23;;;;;;;33.23;15.90;;;16.20;47.10;;;;;;5012532;28;20663;-68
2022/03/10 09:20:50;;;;;;;286.13;39.07;;;16.90;47.30;;;;;;5012165;28;20648;-68
2022/03/10 09:23:15;;;;;;;69.13;18.90;;;18.10;45.80;;;;;;5010680;28;20203;-68
2022/03/10 09:25:41;;;;;;;16.07;13.30;;;18.60;44.80;;;;;;5008080;28;20437;-68
2022/03/10 09:28:07;;;;;;;19.70;12.50;;;19.10;43.50;;;;;;5011083;28;20214;-68
2022/03/10 09:30:32;;;;;;;25.23;14.13;;;20.40;42.00;;;;;;5000814;28;20739;-69
2022/03/10 09:32:58;;;;;;;14.07;12.20;;;20.60;41.20;;;;;;5008591;28;20469;-68
2022/03/10 09:35:24;;;;;;;13.90;11.70;;;20.30;39.70;;;;;;5004770;28;20194;-69
2022/03/10 09:37:49;;;;;;;17.80;11.80;;;21.00;39.00;;;;;;5008453;28;20848;-68
2022/03/10 09:40:15;;;;;;;17.33;11.30;;;21.40;38.10;;;;;;5008633;28;20231;-68
2022/03/10 09:42:42;;;;;;;12.27;11.20;;;20.30;37.50;;;;;;5008065;28;20209;-68
2022/03/10 09:45:10;;;;;;;15.13;10.90;;;19.00;38.90;;;;;;5004889;28;20187;-67
2022/03/10 09:47:40;;;;;;;12.67;11.43;;;18.80;39.00;;;;;;5006762;28;20491;-69
2022/03/10 09:50:12;;;;;;;13.03;11.37;;;19.50;39.20;;;;;;5007871;28;20441;-68
2022/03/10 09:52:38;;;;;;;12.07;10.80;;;19.80;38.30;;;;;;5007967;28;20454;-68
2022/03/10 09:55:06;;;;;;;11.53;10.43;;;20.60;37.10;;;;;;5005535;28;20445;-69
2022/03/10 09:57:34;;;;;;;19.60;10.47;;;20.20;37.40;;;;;;5007797;28;20984;-68
2022/03/10 10:00:00;;;;;;;10.73;9.73;;;21.60;37.90;;;;;;5007021;28;20945;-69
2022/03/10 10:02:27;;;;;;;12.10;11.00;;;22.80;36.50;;;;;;5007933;28;20461;-69
2022/03/10 10:04:54;;;;;;;11.30;10.20;;;23.30;34.80;;;;;;4998156;28;20209;-69
2022/03/10 10:07:29;;;;;;;9.67;8.70;;;23.90;33.10;;;;;;5007624;28;20433;-68
2022/03/10 10:09:56;;;;;;;9.93;8.13;;;23.80;32.90;;;;;;5006420;28;20443;-69
2022/03/10 10:12:30;;;;;;;9.47;8.70;;;23.00;32.70;;;;;;5007340;28;20800;-69
2022/03/10 10:14:58;;;;;;;12.00;9.27;;;22.70;33.30;;;;;;5005393;28;20433;-70
2022/03/10 10:17:32;;;;;;;8.70;8.00;;;22.90;33.10;;;;;;5007598;28;20437;-70
2022/03/10 10:20:00;;;;;;;9.83;8.83;;;23.10;33.40;;;;;;4993643;28;20596;-70
2022/03/10 10:22:28;;;;;;;8.67;7.87;;;23.60;32.60;;;;;;5007388;28;20876;-69
2022/03/10 10:24:59;;;;;;;7.80;7.00;;;22.20;32.20;;;;;;5004281;28;20939;-71
2022/03/10 10:27:33;;;;;;;15.53;8.67;;;21.10;32.50;;;;;;5006483;28;20511;-68
2022/03/10 10:30:01;;;;;;;30.67;9.47;;;19.70;34.20;;;;;;4996063;28;20430;-69
2022/03/10 10:32:30;;;;;;;11.57;8.03;;;20.40;36.40;;;;;;5007320;28;20457;-68
2022/03/10 10:34:59;;;;;;;10.90;8.53;;;21.60;35.80;;;;;;5004411;28;20443;-71
2022/03/10 10:37:25;;;;;;;9.87;7.63;;;22.60;34.30;;;;;;5006999;28;20516;-69
2022/03/10 10:39:52;;;;;;;8.70;7.57;;;22.60;34.10;;;;;;5005158;28;20631;-69
2022/03/10 10:42:18;;;;;;;7.87;7.20;;;22.80;33.50;;;;;;5007708;28;20209;-69
2022/03/10 10:44:43;;;;;;;8.63;7.83;;;22.40;32.80;;;;;;5005820;28;20516;-70
2022/03/10 10:47:09;;;;;;;7.33;6.57;;;22.30;33.60;;;;;;5006003;28;20187;-69
2022/03/10 10:49:35;;;;;;;9.70;7.00;;;22.00;33.30;;;;;;5005391;28;20569;-70
2022/03/10 10:52:01;;;;;;;8.27;7.23;;;21.90;34.10;;;;;;5007033;28;20646;-69
2022/03/10 10:54:29;;;;;;;43.10;12.40;;;22.10;33.40;;;;;;5006320;28;20984;-69
2022/03/10 10:57:02;;;;;;;22.37;7.80;;;22.60;32.70;;;;;;5003820;28;20381;-69
2022/03/10 10:59:37;;;;;;;21.30;7.80;;;22.60;32.60;;;;;;5000350;28;20469;-69
2022/03/10 11:02:17;;;;;;;8.73;7.43;;;22.80;31.70;;;;;;5006218;28;20960;-70
2022/03/10 11:04:46;;;;;;;9.67;7.27;;;22.70;32.20;;;;;;5005788;28;20856;-70
2022/03/10 11:07:12;;;;;;;8.50;7.40;;;22.70;32.30;;;;;;5003968;28;20883;-71
2022/03/10 11:09:41;;;;;;;8.33;7.33;;;23.10;32.20;;;;;;5007490;28;20449;-69
2022/03/10 11:12:09;;;;;;;8.10;6.90;;;23.50;31.20;;;;;;5007181;28;20833;-69
2022/03/10 11:14:35;;;;;;;6.83;6.23;;;23.10;32.20;;;;;;5008115;28;20491;-70
2022/03/10 11:17:01;;;;;;;7.03;5.70;;;23.70;31.80;;;;;;5003413;28;20938;-68
2022/03/10 11:19:32;;;;;;;7.70;5.47;;;23.80;32.60;;;;;;5007064;28;20293;-69
2022/03/10 11:22:34;;;;;;;6.77;6.00;;;23.60;31.60;;;;;;5007318;28;20537;-68
2022/03/10 11:25:19;;;;;;;5.90;4.87;;;23.40;31.70;;;;;;5002550;28;20531;-68
2022/03/10 11:27:55;;;;;;;9.43;5.97;;;23.00;30.50;;;;;;5011094;28;20424;-70
2022/03/10 11:30:29;;;;;;;33.43;7.23;;;23.40;30.40;;;;;;5011720;28;20429;-68
2022/03/10 11:33:28;;;;;;;10.93;6.50;;;23.60;30.50;;;;;;5011367;28;20866;-68
2022/03/10 11:35:53;;;;;;;5.90;5.33;;;24.30;30.00;;;;;;5007642;28;20430;-70
2022/03/10 11:38:30;;;;;;;17.23;6.80;;;24.90;29.40;;;;;;5011591;28;20418;-70
2022/03/10 11:40:56;;;;;;;5.30;4.90;;;24.80;30.20;;;;;;5011063;28;20214;-68
2022/03/10 11:43:34;;;;;;;6.47;5.40;;;24.70;28.40;;;;;;5010349;28;20600;-68
2022/03/10 11:46:18;;;;;;;16.20;6.90;;;24.20;28.20;;;;;;5007533;28;20429;-68
2022/03/10 11:48:59;;;;;;;5.70;5.10;;;24.30;29.60;;;;;;5011118;28;20437;-68
2022/03/10 11:51:39;;;;;;;5.07;4.67;;;25.00;28.50;;;;;;5010873;28;20489;-68
2022/03/10 11:54:06;;;;;;;6.00;5.40;;;25.00;28.80;;;;;;5010757;28;20794;-67
2022/03/10 11:56:43;;;;;;;5.23;4.80;;;25.40;27.90;;;;;;5006447;28;20812;-68
2022/03/10 11:59:43;;;;;;;5.20;4.70;;;26.00;28.40;;;;;;5002968;28;20804;-68
2022/03/10 12:02:29;;;;;;;5.00;4.57;;;26.40;27.70;;;;;;5000664;28;20452;-67
2022/03/10 12:04:58;;;;;;;5.77;4.27;;;25.40;27.60;;;;;;5004273;28;20649;-68
2022/03/10 12:07:28;;;;;;;7.10;6.40;;;25.10;27.90;;;;;;5002410;28;20441;-68
2022/03/10 12:10:03;;;;;;;5.43;4.93;;;25.30;27.90;;;;;;5007905;28;20955;-67
2022/03/10 12:12:28;;;;;;;4.30;4.00;;;26.20;27.40;;;;;;5006420;28;20487;-68
2022/03/10 12:14:57;;;;;;;8.07;4.80;;;26.20;27.70;;;;;;5004127;28;20465;-68
2022/03/10 12:17:54;;;;;;;5.00;4.70;;;26.80;27.20;;;;;;5009152;28;20205;-68
2022/03/10 12:20:24;;;;;;;5.03;4.53;;;26.40;27.40;;;;;;4991603;28;20559;-68
2022/03/10 12:23:12;;;;;;;6.50;5.90;;;26.20;27.30;;;;;;5005701;28;20449;-68
2022/03/10 12:25:52;;;;;;;24.90;6.10;;;26.00;27.30;;;;;;5005966;28;20430;-67
2022/03/10 12:28:36;;;;;;;5.67;5.17;;;25.00;27.20;;;;;;5010183;28;20433;-68
2022/03/10 12:31:03;;;;;;;5.23;4.73;;;25.60;27.50;;;;;;5009872;28;20488;-68
2022/03/10 12:33:29;;;;;;;75.23;9.93;;;25.10;27.40;;;;;;5009400;28;20457;-67
2022/03/10 12:35:56;;;;;;;23.43;6.30;;;25.00;27.50;;;;;;5006186;28;20430;-68
2022/03/10 12:38:36;;;;;;;15.23;6.13;;;24.90;27.60;;;;;;5010297;28;20429;-67
2022/03/10 12:41:02;;;;;;;34.93;5.83;;;24.10;28.10;;;;;;5009642;28;20468;-68
2022/03/10 12:43:28;;;;;;;6.47;4.30;;;23.80;27.80;;;;;;5009024;28;20896;-68
2022/03/10 12:45:55;;;;;;;5.23;4.83;;;24.30;27.90;;;;;;5006395;28;20429;-67